Time;durP1;ratioP1;P1;durP2;ratioP2;P2;SDS_P1;SDS_P2;PMS_P1;PMS_P2;Temp;Humidity;BMP_temperature;BMP_pressure;BME280_temperature;BME280_humidity;BME280_pressure;Samples;Min_cycle;Max_cycle;Signal;HPM_P1;HPM_P2
2022/12/16 00:02:01;;;;;;;54.93;32.70;;;-0.60;99.90;;;;;;5079241;28;20546;-73
2022/12/16 00:04:26;;;;;;;48.87;31.23;;;-0.70;99.90;;;;;;5077653;28;20272;-73
2022/12/16 00:06:52;;;;;;;44.30;28.87;;;-0.80;99.90;;;;;;5077036;28;20202;-73
2022/12/16 00:09:18;;;;;;;50.33;31.53;;;-0.80;99.90;;;;;;5069641;28;20207;-73
2022/12/16 00:11:43;;;;;;;45.80;30.33;;;-0.80;99.90;;;;;;5070913;28;20213;-73
2022/12/16 00:14:09;;;;;;;47.03;29.70;;;-0.90;99.90;;;;;;5069080;28;20659;-73
2022/12/16 00:16:34;;;;;;;49.13;30.40;;;-1.00;99.90;;;;;;5074401;28;20183;-73
2022/12/16 00:19:00;;;;;;;47.90;30.60;;;-1.00;99.90;;;;;;5077836;28;20673;-74
2022/12/16 00:21:28;;;;;;;52.63;32.63;;;-1.00;99.90;;;;;;5074482;28;20221;-74
2022/12/16 00:23:55;;;;;;;48.47;31.33;;;-1.00;99.90;;;;;;5073252;28;20294;-73
2022/12/16 00:26:21;;;;;;;46.67;29.27;;;-1.00;99.90;;;;;;5074821;28;20632;-73
2022/12/16 00:28:47;;;;;;;48.50;30.73;;;-1.00;99.90;;;;;;5071789;28;20190;-74
2022/12/16 00:31:12;;;;;;;49.53;31.23;;;-1.00;99.90;;;;;;5076647;28;20182;-74
2022/12/16 00:33:38;;;;;;;48.57;32.03;;;-1.00;99.90;;;;;;5074621;28;20623;-73
2022/12/16 00:36:04;;;;;;;42.93;28.43;;;-1.10;99.90;;;;;;5066717;28;20174;-73
2022/12/16 00:38:29;;;;;;;51.73;29.57;;;-1.10;99.90;;;;;;5078978;28;20206;-73
2022/12/16 00:40:55;;;;;;;50.03;30.70;;;-1.00;99.90;;;;;;5074401;28;20209;-73
2022/12/16 00:43:21;;;;;;;49.33;30.37;;;-1.00;99.90;;;;;;5075329;28;20591;-73
2022/12/16 00:45:47;;;;;;;47.33;31.53;;;-1.00;99.90;;;;;;5081118;28;20182;-73
2022/12/16 00:48:13;;;;;;;53.00;35.20;;;-1.00;99.90;;;;;;5065727;28;20222;-73
2022/12/16 00:50:38;;;;;;;46.53;27.37;;;-1.10;99.90;;;;;;5075001;28;20184;-74
2022/12/16 00:53:04;;;;;;;50.77;31.60;;;-1.10;99.90;;;;;;5078258;28;20213;-74
2022/12/16 00:55:31;;;;;;;48.10;30.03;;;-1.10;99.90;;;;;;5069313;28;20370;-74
2022/12/16 00:57:57;;;;;;;50.00;31.00;;;-1.10;99.90;;;;;;5072372;28;20171;-73
2022/12/16 01:00:22;;;;;;;49.50;29.73;;;-1.10;99.90;;;;;;5062155;28;20180;-74
2022/12/16 01:02:49;;;;;;;55.43;31.40;;;-1.00;99.90;;;;;;5063717;28;20679;-74
2022/12/16 01:05:18;;;;;;;52.80;31.27;;;-1.00;99.90;;;;;;5064313;28;21289;-74
2022/12/16 01:07:43;;;;;;;45.63;27.63;;;-1.00;99.90;;;;;;5071255;28;20191;-73
2022/12/16 01:10:09;;;;;;;42.83;27.03;;;-1.00;99.90;;;;;;5075016;28;20207;-73
2022/12/16 01:12:36;;;;;;;50.37;31.30;;;-1.00;99.90;;;;;;5080292;28;20290;-73
2022/12/16 01:15:03;;;;;;;52.97;29.73;;;-1.00;99.90;;;;;;5076461;28;20178;-73
2022/12/16 01:17:29;;;;;;;53.03;32.47;;;-1.00;99.90;;;;;;5072022;28;20261;-73
2022/12/16 01:19:54;;;;;;;53.23;32.57;;;-1.00;99.90;;;;;;5077867;28;20269;-73
2022/12/16 01:22:21;;;;;;;51.83;30.50;;;-1.00;99.90;;;;;;5072258;28;20199;-73
2022/12/16 01:24:46;;;;;;;52.40;31.50;;;-1.00;99.90;;;;;;5071177;28;20183;-74
2022/12/16 01:27:13;;;;;;;49.13;29.07;;;-1.00;99.90;;;;;;5072300;28;20187;-74
2022/12/16 01:29:38;;;;;;;51.47;32.03;;;-1.00;99.90;;;;;;5074672;28;20233;-74
2022/12/16 01:32:05;;;;;;;51.17;32.20;;;-1.00;99.90;;;;;;5071511;28;20242;-73
2022/12/16 01:34:31;;;;;;;45.23;29.73;;;-1.00;99.90;;;;;;5066919;28;20208;-73
2022/12/16 01:36:56;;;;;;;49.77;30.80;;;-1.00;99.90;;;;;;5068330;28;20175;-73
2022/12/16 01:39:23;;;;;;;50.63;32.67;;;-1.10;99.90;;;;;;5069861;28;20618;-74
2022/12/16 01:41:49;;;;;;;48.60;30.23;;;-1.00;99.90;;;;;;5072389;28;20178;-74
2022/12/16 01:44:20;;;;;;;47.67;30.87;;;-0.90;99.90;;;;;;5070444;28;20317;-74
2022/12/16 01:47:00;;;;;;;53.80;30.90;;;-0.90;99.90;;;;;;5075620;28;20659;-74
2022/12/16 01:49:35;;;;;;;50.90;30.87;;;-0.90;99.90;;;;;;5072251;28;20240;-74
2022/12/16 01:52:06;;;;;;;51.40;30.37;;;-0.90;99.90;;;;;;5077387;28;20193;-74
2022/12/16 01:54:55;;;;;;;45.53;28.17;;;-0.90;99.90;;;;;;5076738;28;20712;-74
2022/12/16 01:57:26;;;;;;;51.57;32.83;;;-0.80;99.90;;;;;;5081555;28;20658;-75
2022/12/16 01:59:54;;;;;;;48.20;30.13;;;-0.70;99.90;;;;;;5078253;28;20203;-75
2022/12/16 02:02:20;;;;;;;53.77;29.60;;;-0.80;99.90;;;;;;5079120;28;20228;-74
2022/12/16 02:07:30;;;;;;;47.37;29.33;;;-0.90;99.90;;;;;;5072103;28;20190;-74
2022/12/16 02:09:56;;;;;;;48.77;30.20;;;-0.80;99.90;;;;;;5070604;28;20215;-74
2022/12/16 02:12:55;;;;;;;48.07;29.47;;;-0.80;99.90;;;;;;5066469;28;20207;-74
2022/12/16 02:15:45;;;;;;;44.90;27.20;;;-0.80;99.90;;;;;;5074348;28;20730;-74
2022/12/16 02:18:16;;;;;;;50.20;30.17;;;-0.80;99.90;;;;;;5076560;28;20242;-74
2022/12/16 02:21:17;;;;;;;48.50;29.47;;;-0.80;99.90;;;;;;5082059;28;20178;-74
2022/12/16 02:24:00;;;;;;;47.03;30.13;;;-0.80;99.90;;;;;;5001217;28;20192;-74
2022/12/16 02:26:40;;;;;;;45.57;28.27;;;-0.80;99.90;;;;;;5071998;28;20656;-75
2022/12/16 02:29:06;;;;;;;46.80;29.07;;;-0.90;99.90;;;;;;5075914;28;20633;-75
2022/12/16 02:31:45;;;;;;;46.60;29.30;;;-0.80;99.90;;;;;;5076950;28;20185;-74
2022/12/16 02:34:29;;;;;;;45.93;29.37;;;-0.80;99.90;;;;;;5070751;28;20206;-75
2022/12/16 02:37:12;;;;;;;42.73;27.23;;;-0.80;99.90;;;;;;5082507;28;20177;-74
2022/12/16 02:39:47;;;;;;;41.20;27.63;;;-0.80;99.90;;;;;;5073731;28;20197;-73
2022/12/16 02:42:20;;;;;;;44.23;28.50;;;-0.70;99.90;;;;;;5074642;28;20202;-73
2022/12/16 02:45:01;;;;;;;42.07;26.10;;;-0.70;99.90;;;;;;5068525;28;20198;-74
2022/12/16 02:47:28;;;;;;;45.20;29.10;;;-0.70;99.90;;;;;;5077769;28;20209;-74
2022/12/16 02:49:54;;;;;;;44.77;29.03;;;-0.80;99.90;;;;;;5074508;28;20203;-73
2022/12/16 02:52:26;;;;;;;51.73;31.07;;;-0.90;99.90;;;;;;5072572;28;20206;-74
2022/12/16 02:54:57;;;;;;;48.10;29.70;;;-0.90;99.90;;;;;;5079365;28;20240;-74
2022/12/16 02:57:45;;;;;;;43.33;27.43;;;-0.90;99.90;;;;;;5075524;28;20252;-73
2022/12/16 03:00:17;;;;;;;47.27;29.23;;;-0.90;99.90;;;;;;5079244;28;20245;-73
2022/12/16 03:02:42;;;;;;;43.13;28.43;;;-0.90;99.90;;;;;;5078828;28;20171;-73
2022/12/16 03:05:33;;;;;;;43.20;28.03;;;-0.90;99.90;;;;;;5073992;28;20194;-73
2022/12/16 03:08:02;;;;;;;42.67;27.00;;;-1.00;99.90;;;;;;5074794;28;20228;-74
2022/12/16 03:10:33;;;;;;;44.70;26.93;;;-0.90;99.90;;;;;;5073416;28;20214;-73
2022/12/16 03:13:00;;;;;;;43.67;26.47;;;-0.90;99.90;;;;;;5078493;28;20207;-73
2022/12/16 03:15:31;;;;;;;47.77;29.27;;;-0.90;99.90;;;;;;5077455;28;20191;-74
2022/12/16 03:17:58;;;;;;;46.10;25.83;;;-0.90;99.90;;;;;;5074579;28;20186;-73
2022/12/16 03:20:33;;;;;;;48.17;29.47;;;-0.90;99.90;;;;;;5071748;28;20180;-74
2022/12/16 03:23:02;;;;;;;43.77;28.70;;;-1.00;99.90;;;;;;5075223;28;20186;-73
2022/12/16 03:25:30;;;;;;;47.03;28.47;;;-1.00;99.90;;;;;;5076732;28;20179;-74
2022/12/16 03:28:25;;;;;;;42.40;25.93;;;-1.10;99.90;;;;;;5073383;28;20448;-74
2022/12/16 03:30:59;;;;;;;43.10;26.67;;;-1.00;99.90;;;;;;5075119;28;20206;-74
2022/12/16 03:33:35;;;;;;;45.73;27.83;;;-1.10;99.90;;;;;;5070597;28;20259;-73
2022/12/16 03:36:07;;;;;;;49.40;27.90;;;-1.00;99.90;;;;;;5069677;28;20264;-73
2022/12/16 03:38:35;;;;;;;46.17;28.27;;;-1.10;99.90;;;;;;5075406;28;20251;-73
2022/12/16 03:41:02;;;;;;;41.40;26.87;;;-1.10;99.90;;;;;;5075477;28;20173;-74
2022/12/16 03:43:27;;;;;;;49.43;30.13;;;-1.10;99.90;;;;;;5075418;28;20259;-73
2022/12/16 03:45:58;;;;;;;43.80;26.73;;;-1.10;99.90;;;;;;5073793;28;20329;-74
2022/12/16 03:48:25;;;;;;;44.90;26.70;;;-1.10;99.90;;;;;;5074262;28;20207;-74
2022/12/16 03:50:50;;;;;;;49.50;28.97;;;-1.10;99.90;;;;;;5075916;28;20187;-74
2022/12/16 03:53:17;;;;;;;43.23;27.53;;;-1.10;99.90;;;;;;5070455;28;20241;-74
2022/12/16 03:55:43;;;;;;;44.40;30.07;;;-1.10;99.90;;;;;;5078430;28;20171;-74
2022/12/16 03:58:09;;;;;;;41.97;25.43;;;-1.20;99.90;;;;;;5072208;28;20180;-74
2022/12/16 04:00:35;;;;;;;43.23;28.13;;;-1.20;99.90;;;;;;5076399;28;20172;-73
2022/12/16 04:03:00;;;;;;;44.87;28.27;;;-1.20;99.90;;;;;;5074489;28;20667;-73
2022/12/16 04:05:26;;;;;;;42.17;27.70;;;-1.20;99.90;;;;;;5070261;28;20187;-73
2022/12/16 04:07:52;;;;;;;46.40;27.87;;;-1.20;99.90;;;;;;5073933;28;20194;-73
2022/12/16 04:24:17;;;;;;;43.93;29.50;;;-1.20;99.90;;;;;;5064419;28;20210;-73
2022/12/16 04:24:21;;;;;;;43.23;27.67;;;-1.20;99.90;;;;;;5072324;28;20186;-74
2022/12/16 04:29:31;;;;;;;41.43;25.27;;;-1.30;99.90;;;;;;5067681;28;20222;-74
2022/12/16 04:31:57;;;;;;;45.80;28.43;;;-1.30;99.90;;;;;;5067970;28;20568;-74
2022/12/16 04:34:27;;;;;;;47.57;29.43;;;-1.30;99.90;;;;;;5074166;28;20178;-74
